Time;durP1;ratioP1;P1;durP2;ratioP2;P2;SDS_P1;SDS_P2;PMS_P1;PMS_P2;Temp;Humidity;BMP_temperature;BMP_pressure;BME280_temperature;BME280_humidity;BME280_pressure;Samples;Min_cycle;Max_cycle;Signal;HPM_P1;HPM_P2
2022/07/11 00:02:24;;;;;;;9.32;3.60;;;;;;;15.94;100.00;102609.72;7372031;19;20074;-76
2022/07/11 00:04:54;;;;;;;12.00;4.03;;;;;;;15.94;100.00;102611.47;7368860;19;20452;-76
2022/07/11 00:07:28;;;;;;;9.30;3.92;;;;;;;15.95;100.00;102606.22;7372486;19;20090;-76
2022/07/11 00:09:57;;;;;;;9.43;3.50;;;;;;;15.96;100.00;102607.13;7372284;19;20011;-76
2022/07/11 00:12:28;;;;;;;10.75;3.70;;;;;;;15.97;100.00;102599.19;7365282;19;20018;-80
2022/07/11 00:14:59;;;;;;;14.32;4.32;;;;;;;15.97;100.00;102601.84;7373147;19;20042;-79
2022/07/11 00:17:30;;;;;;;12.00;4.13;;;;;;;15.99;100.00;102597.47;7373327;19;20019;-79
2022/07/11 00:20:01;;;;;;;11.38;4.10;;;;;;;15.98;100.00;102601.00;7374212;19;20035;-79
2022/07/11 00:22:34;;;;;;;15.18;4.95;;;;;;;16.01;100.00;102595.75;7376454;19;20010;-79
2022/07/11 00:25:04;;;;;;;8.82;4.70;;;;;;;16.00;100.00;102591.31;7371720;19;20387;-79
2022/07/11 00:27:34;;;;;;;9.57;4.60;;;;;;;16.07;100.00;102594.09;7369457;19;20130;-80
2022/07/11 00:30:05;;;;;;;11.73;4.57;;;;;;;16.13;100.00;102594.19;7377236;19;20014;-78
2022/07/11 00:32:35;;;;;;;11.27;4.22;;;;;;;16.13;100.00;102594.19;7371104;19;20656;-79
2022/07/11 00:35:05;;;;;;;11.98;3.90;;;;;;;16.16;100.00;102594.25;7375564;19;20011;-79
2022/07/11 00:37:38;;;;;;;10.20;3.70;;;;;;;16.21;100.00;102587.28;7370434;19;20014;-78
2022/07/11 00:40:09;;;;;;;11.93;4.05;;;;;;;16.22;100.00;102591.72;7374401;19;20006;-79
2022/07/11 00:42:40;;;;;;;10.23;3.67;;;;;;;16.26;100.00;102585.63;7371932;19;20011;-79
2022/07/11 00:45:13;;;;;;;8.07;3.33;;;;;;;16.29;100.00;102596.25;7378550;19;20014;-78
2022/07/11 00:47:43;;;;;;;11.48;3.80;;;;;;;16.31;100.00;102590.13;7377753;19;20011;-79
2022/07/11 00:50:14;;;;;;;11.13;3.42;;;;;;;16.33;100.00;102587.50;7379230;19;20026;-79
2022/07/11 00:52:48;;;;;;;9.70;3.63;;;;;;;16.35;100.00;102588.41;7375827;19;20018;-79
2022/07/11 00:55:20;;;;;;;11.68;4.30;;;;;;;16.32;100.00;102591.00;7374914;19;20014;-79
2022/07/11 00:57:54;;;;;;;11.85;3.47;;;;;;;16.34;100.00;102584.00;7379778;19;20039;-78
2022/07/11 01:00:24;;;;;;;8.80;3.35;;;;;;;16.38;100.00;102591.13;7375409;19;20015;-79
2022/07/11 01:02:54;;;;;;;9.57;3.60;;;;;;;16.41;100.00;102595.59;7375500;19;20046;-79
2022/07/11 01:05:24;;;;;;;9.27;4.15;;;;;;;16.44;100.00;102593.00;7376281;19;20006;-79
2022/07/11 01:07:57;;;;;;;10.40;3.80;;;;;;;16.40;100.00;102599.97;7375853;19;20475;-77
2022/07/11 01:10:27;;;;;;;12.73;3.87;;;;;;;16.41;100.00;102603.53;7375507;19;20011;-78
2022/07/11 01:12:57;;;;;;;9.00;3.92;;;;;;;16.34;100.00;102599.88;7374270;19;20011;-77
2022/07/11 01:15:27;;;;;;;11.80;3.65;;;;;;;16.34;100.00;102599.88;7372673;19;20041;-78
2022/07/11 01:17:57;;;;;;;9.48;3.10;;;;;;;16.39;100.00;102592.00;7376081;19;20011;-78
2022/07/11 01:20:29;;;;;;;8.05;3.35;;;;;;;16.38;100.00;102591.13;7380240;19;20478;-78
2022/07/11 01:23:05;;;;;;;10.65;3.53;;;;;;;16.44;100.00;102600.94;7386072;19;20025;-77
2022/07/11 01:25:37;;;;;;;11.75;3.78;;;;;;;16.41;100.00;102580.59;7382189;19;20006;-77
2022/07/11 01:28:10;;;;;;;9.55;3.35;;;;;;;16.46;100.00;102588.59;7381259;19;20117;-79
2022/07/11 01:30:40;;;;;;;10.88;3.63;;;;;;;16.48;100.00;102589.53;7386000;19;20015;-78
2022/07/11 01:33:10;;;;;;;10.70;3.42;;;;;;;16.42;100.00;102592.97;7384259;19;20031;-77
2022/07/11 01:35:40;;;;;;;9.50;3.17;;;;;;;16.45;100.00;102586.81;7385414;19;20011;-78
2022/07/11 01:38:13;;;;;;;9.32;3.58;;;;;;;16.45;100.00;102598.31;7386769;19;20062;-78
2022/07/11 01:40:43;;;;;;;10.18;3.60;;;;;;;16.46;100.00;102584.19;7393346;19;20267;-78
2022/07/11 01:43:13;;;;;;;12.27;3.80;;;;;;;16.46;100.00;102583.31;7382226;19;20010;-76
2022/07/11 01:45:43;;;;;;;6.60;3.30;;;;;;;16.49;100.00;102586.91;7379946;19;20011;-76
2022/07/11 01:48:14;;;;;;;8.27;3.38;;;;;;;16.46;100.00;102580.66;7377581;19;20333;-76
2022/07/11 01:50:44;;;;;;;7.38;2.92;;;;;;;16.51;100.00;102587.81;7380333;19;20011;-76
2022/07/11 01:53:18;;;;;;;8.48;3.35;;;;;;;16.52;100.00;102579.00;7371653;19;20070;-77
2022/07/11 01:55:48;;;;;;;6.75;3.00;;;;;;;16.55;100.00;102584.34;7378908;19;20017;-76
2022/07/11 01:58:38;;;;;;;9.27;3.30;;;;;;;16.57;100.00;102582.63;7376101;19;20055;-77
2022/07/11 02:01:09;;;;;;;10.40;3.42;;;;;;;16.59;100.00;102583.53;7377473;19;20011;-76
2022/07/11 02:03:39;;;;;;;9.27;3.50;;;;;;;16.50;100.00;102580.75;7377014;19;20018;-76
2022/07/11 02:06:10;;;;;;;7.90;3.38;;;;;;;16.51;100.00;102581.63;7376232;19;20018;-77
2022/07/11 02:08:43;;;;;;;6.45;3.40;;;;;;;16.49;100.00;102584.25;7376044;19;20401;-75
2022/07/11 02:11:13;;;;;;;12.17;3.80;;;;;;;16.54;100.00;102577.28;7373424;19;20010;-75
2022/07/11 02:13:45;;;;;;;7.00;2.83;;;;;;;16.55;100.00;102575.53;7371524;19;20022;-76
2022/07/11 02:16:15;;;;;;;6.10;3.05;;;;;;;16.52;100.00;102575.47;7370772;19;20015;-76
2022/07/11 02:18:45;;;;;;;7.88;3.13;;;;;;;16.59;100.00;102577.34;7375877;19;20033;-76
2022/07/11 02:21:15;;;;;;;8.00;3.20;;;;;;;16.62;100.00;102572.09;7379843;19;20010;-76
2022/07/11 02:23:47;;;;;;;7.15;3.30;;;;;;;16.63;100.00;102573.88;7376758;19;20041;-77
2022/07/11 02:26:17;;;;;;;9.40;3.15;;;;;;;16.60;100.00;102571.19;7376014;19;20074;-77
2022/07/11 02:28:47;;;;;;;8.65;3.40;;;;;;;16.59;100.00;102566.75;7375564;19;20755;-77
2022/07/11 02:31:17;;;;;;;6.15;3.08;;;;;;;16.59;100.00;102570.28;7375320;19;20382;-79
2022/07/11 02:33:48;;;;;;;9.07;2.97;;;;;;;16.60;100.00;102571.19;7373936;19;20045;-78
2022/07/11 02:36:18;;;;;;;6.07;3.63;;;;;;;16.57;100.00;102576.44;7376142;19;20006;-77
2022/07/11 02:38:50;;;;;;;5.80;2.97;;;;;;;16.55;100.00;102573.75;7376175;19;20061;-77
2022/07/11 02:41:21;;;;;;;6.18;2.88;;;;;;;16.58;100.00;102572.91;7376735;19;20034;-76
2022/07/11 02:43:51;;;;;;;8.55;3.60;;;;;;;16.55;100.00;102573.75;7374244;19;20011;-76
2022/07/11 02:46:22;;;;;;;7.07;3.00;;;;;;;16.59;100.00;102580.00;7377132;19;20663;-76
2022/07/11 02:48:55;;;;;;;6.35;3.50;;;;;;;16.57;100.00;102572.03;7373176;19;20105;-76
2022/07/11 02:51:25;;;;;;;5.47;2.83;;;;;;;16.65;100.00;102572.16;7373631;19;20019;-76
2022/07/11 02:53:57;;;;;;;9.15;3.20;;;;;;;16.60;100.00;102566.78;7364761;19;20713;-77
2022/07/11 02:56:27;;;;;;;9.95;2.83;;;;;;;16.65;100.00;102578.34;7376130;19;20463;-76
2022/07/11 02:58:57;;;;;;;7.72;3.55;;;;;;;16.60;100.00;102582.66;7370193;19;20011;-75
2022/07/11 03:01:27;;;;;;;9.48;3.50;;;;;;;16.61;100.00;102579.16;7372686;19;20038;-76
2022/07/11 03:03:57;;;;;;;7.10;3.55;;;;;;;16.57;100.00;102566.72;7372977;19;20021;-76
2022/07/11 03:06:28;;;;;;;8.73;3.40;;;;;;;16.57;100.00;102572.03;7372551;19;20139;-77
2022/07/11 03:09:02;;;;;;;5.60;2.70;;;;;;;16.58;100.00;102575.56;7373033;19;20015;-78
2022/07/11 03:11:34;;;;;;;10.95;3.38;;;;;;;16.57;100.00;102577.31;7371005;19;20027;-76
2022/07/11 03:14:05;;;;;;;8.93;3.65;;;;;;;16.55;100.00;102573.75;7368344;19;20003;-76
2022/07/11 03:16:35;;;;;;;6.97;3.33;;;;;;;16.55;100.00;102571.13;7370659;19;20098;-76
2022/07/11 03:19:04;;;;;;;7.65;2.72;;;;;;;16.57;100.00;102571.13;7375486;19;20392;-76
2022/07/11 03:21:35;;;;;;;5.00;2.78;;;;;;;16.57;100.00;102572.03;7370270;19;20611;-76
2022/07/11 03:24:08;;;;;;;5.72;2.25;;;;;;;16.54;100.00;102569.31;7374383;19;20015;-76
2022/07/11 03:26:38;;;;;;;9.27;2.50;;;;;;;16.54;100.00;102569.31;7371900;19;20015;-77
2022/07/11 03:29:09;;;;;;;3.92;2.17;;;;;;;16.52;100.00;102571.06;7375482;19;20041;-78
2022/07/11 03:31:39;;;;;;;7.13;2.47;;;;;;;16.48;100.00;102576.28;7371782;19;20074;-78
2022/07/11 03:34:09;;;;;;;5.13;2.15;;;;;;;16.55;100.00;102570.22;7372005;19;20010;-77
2022/07/11 03:36:39;;;;;;;6.18;2.47;;;;;;;16.51;100.00;102576.34;7370120;19;20020;-78
2022/07/11 03:39:13;;;;;;;5.90;2.83;;;;;;;16.50;100.00;102580.75;7375089;19;20035;-78
2022/07/11 03:41:44;;;;;;;7.18;2.63;;;;;;;16.51;100.00;102576.34;7371743;19;20010;-79
2022/07/11 03:44:14;;;;;;;5.63;2.67;;;;;;;16.47;100.00;102570.09;7373882;19;20018;-79
2022/07/11 03:46:44;;;;;;;5.38;2.55;;;;;;;16.46;100.00;102573.59;7378934;19;20014;-78
2022/07/11 03:49:15;;;;;;;6.18;2.80;;;;;;;16.48;100.00;102579.81;7378957;19;20015;-78
2022/07/11 03:51:45;;;;;;;4.45;2.40;;;;;;;16.47;100.00;102575.38;7380351;19;20043;-78
2022/07/11 03:54:17;;;;;;;7.75;2.60;;;;;;;16.47;100.00;102580.69;7369068;19;20143;-77
2022/07/11 03:56:49;;;;;;;6.22;2.55;;;;;;;16.43;100.00;102576.19;7378599;19;20448;-78
2022/07/11 03:59:20;;;;;;;6.57;2.53;;;;;;;16.48;100.00;102576.28;7374629;19;20022;-78
2022/07/11 04:01:51;;;;;;;6.68;2.60;;;;;;;16.46;100.00;102578.91;7379289;19;20014;-77
2022/07/11 04:04:21;;;;;;;13.15;3.97;;;;;;;16.50;100.00;102582.50;7375283;19;20487;-77
2022/07/11 04:06:51;;;;;;;7.45;2.47;;;;;;;16.41;100.00;102585.88;7374988;19;20006;-77
2022/07/11 04:09:25;;;;;;;7.50;2.72;;;;;;;16.38;100.00;102580.53;7375575;19;20039;-78
2022/07/11 04:11:55;;;;;;;5.68;2.50;;;;;;;16.33;100.00;102587.50;7373267;19;20024;-78
2022/07/11 04:14:25;;;;;;;5.97;2.65;;;;;;;16.38;100.00;102580.53;7370378;19;20552;-77
2022/07/11 04:16:55;;;;;;;4.05;2.20;;;;;;;16.35;100.00;102585.78;7369573;19;20451;-77
2022/07/11 04:19:26;;;;;;;4.93;2.47;;;;;;;16.34;100.00;102579.59;7376042;19;20032;-77
2022/07/11 04:21:56;;;;;;;6.97;2.63;;;;;;;16.29;100.00;102580.38;7375944;19;20090;-77
2022/07/11 04:24:28;;;;;;;4.93;2.45;;;;;;;16.33;100.00;102587.50;7371431;19;20444;-76
2022/07/11 04:26:59;;;;;;;4.63;2.22;;;;;;;16.31;100.00;102587.47;7374623;19;20531;-78
2022/07/11 04:29:31;;;;;;;3.10;2.10;;;;;;;16.32;100.00;102580.44;7371449;19;20010;-78
2022/07/11 04:32:03;;;;;;;4.75;2.30;;;;;;;16.32;100.00;102583.97;7376247;19;20571;-76
2022/07/11 04:34:33;;;;;;;3.65;2.33;;;;;;;16.33;100.00;102583.09;7376620;19;20021;-77
2022/07/11 04:37:04;;;;;;;9.23;2.90;;;;;;;16.39;100.00;102582.31;7372826;19;20064;-76
2022/07/11 04:39:37;;;;;;;6.70;2.63;;;;;;;16.40;100.00;102573.50;7374674;19;20025;-77
2022/07/11 04:42:08;;;;;;;5.20;2.80;;;;;;;16.37;100.00;102572.56;7374971;19;20558;-77
2022/07/11 04:44:38;;;;;;;5.55;3.00;;;;;;;16.47;100.00;102579.78;7376792;19;20044;-77
2022/07/11 04:47:08;;;;;;;7.68;3.13;;;;;;;16.46;100.00;102572.72;7378585;19;20019;-76
2022/07/11 04:49:38;;;;;;;5.68;2.90;;;;;;;16.41;100.00;102577.03;7377042;19;20021;-77
2022/07/11 04:52:10;;;;;;;7.45;3.28;;;;;;;16.33;100.00;102580.44;7372832;19;20017;-77
2022/07/11 04:54:42;;;;;;;5.65;3.10;;;;;;;16.32;100.00;102578.66;7379324;19;20006;-75
2022/07/11 04:57:12;;;;;;;7.97;3.15;;;;;;;16.35;100.00;102583.13;7373970;19;20433;-76
2022/07/11 04:59:42;;;;;;;7.65;3.50;;;;;;;16.33;100.00;102588.41;7374924;19;20365;-76
2022/07/11 05:02:12;;;;;;;5.75;3.15;;;;;;;16.38;100.00;102585.81;7378101;19;20024;-76
2022/07/11 05:04:42;;;;;;;7.18;3.33;;;;;;;16.37;100.00;102594.63;7377922;19;20014;-76
2022/07/11 05:07:12;;;;;;;7.00;3.38;;;;;;;16.37;100.00;102597.28;7384746;19;20003;-76
2022/07/11 05:09:45;;;;;;;4.95;2.75;;;;;;;16.27;100.00;102597.97;7379805;19;20027;-75
2022/07/11 05:12:16;;;;;;;6.03;2.67;;;;;;;16.33;100.00;102591.03;7378099;19;20827;-77
2022/07/11 05:14:48;;;;;;;6.82;2.55;;;;;;;16.26;100.00;102596.19;7376021;19;20530;-78
2022/07/11 05:17:18;;;;;;;5.32;2.70;;;;;;;16.30;100.00;102598.03;7381403;19;20007;-77
2022/07/11 05:19:48;;;;;;;6.75;3.00;;;;;;;16.24;100.00;102605.88;7374006;19;20030;-76
2022/07/11 05:22:19;;;;;;;6.50;2.80;;;;;;;16.20;100.00;102606.69;7376905;19;21714;-78
2022/07/11 05:24:52;;;;;;;4.55;2.67;;;;;;;16.16;100.00;102605.72;7377558;19;20068;-77
2022/07/11 05:27:23;;;;;;;5.53;2.70;;;;;;;16.23;100.00;102612.03;7378427;19;20019;-78
2022/07/11 05:29:53;;;;;;;5.38;3.00;;;;;;;16.22;100.00;102616.44;7375410;19;20533;-78
2022/07/11 05:32:23;;;;;;;4.90;2.65;;;;;;;16.27;100.00;102621.81;7377036;19;20029;-78
2022/07/11 05:34:53;;;;;;;6.57;2.83;;;;;;;16.35;100.00;102620.19;7376868;19;20032;-78
2022/07/11 05:37:23;;;;;;;5.90;3.00;;;;;;;16.41;100.00;102616.75;7376908;19;20015;-78
2022/07/11 05:39:57;;;;;;;4.93;2.63;;;;;;;16.44;100.00;102625.66;7378634;19;20013;-79
2022/07/11 05:42:34;;;;;;;4.78;2.50;;;;;;;16.38;100.00;102628.19;7379287;19;20018;-78
2022/07/11 05:45:04;;;;;;;6.80;2.55;;;;;;;16.42;100.00;102626.50;7379387;19;20023;-78
2022/07/11 05:47:34;;;;;;;5.90;2.70;;;;;;;16.34;100.00;102627.25;7377355;19;20407;-78
2022/07/11 05:50:04;;;;;;;5.25;2.45;;;;;;;16.29;100.00;102626.28;7377631;19;20474;-79
2022/07/11 05:52:34;;;;;;;5.53;2.92;;;;;;;16.29;100.00;102631.56;7371141;19;20437;-77
2022/07/11 05:55:08;;;;;;;7.53;2.92;;;;;;;16.25;100.00;102626.19;7373500;19;20014;-77
2022/07/11 05:57:46;;;;;;;6.15;3.08;;;;;;;16.38;100.00;102632.59;7376469;19;20014;-77
2022/07/11 06:00:17;;;;;;;6.43;3.10;;;;;;;16.37;100.00;102631.72;7377227;19;20027;-77
2022/07/11 06:02:47;;;;;;;7.75;3.90;;;;;;;16.33;100.00;102630.75;7378153;19;20034;-76
2022/07/11 06:05:17;;;;;;;8.70;3.65;;;;;;;16.34;100.00;102631.66;7379875;19;20033;-77
2022/07/11 06:10:32;;;;;;;8.85;3.08;;;;;;;16.43;100.00;102626.53;7381377;19;20020;-77
2022/07/11 06:13:02;;;;;;;9.23;3.70;;;;;;;16.46;100.00;102625.69;7381447;19;20471;-77
2022/07/11 06:15:32;;;;;;;7.35;3.00;;;;;;;16.55;100.00;102621.44;7380137;19;20043;-78
2022/07/11 06:18:02;;;;;;;8.27;3.17;;;;;;;16.59;100.00;102617.97;7379097;19;20035;-77
2022/07/11 06:20:32;;;;;;;5.65;2.88;;;;;;;16.60;100.00;102619.75;7380025;19;20050;-77
2022/07/11 06:23:03;;;;;;;3.20;2.47;;;;;;;16.75;100.00;102612.94;7377822;19;20018;-77
2022/07/11 06:25:37;;;;;;;5.15;3.28;;;;;;;16.82;100.00;102609.50;7376074;19;20535;-77
2022/07/11 06:28:07;;;;;;;4.50;2.83;;;;;;;16.80;100.00;102603.28;7378574;19;20040;-77
2022/07/11 06:30:37;;;;;;;5.40;2.40;;;;;;;16.95;100.00;102607.06;7379041;19;20474;-77
2022/07/11 06:33:07;;;;;;;4.43;2.42;;;;;;;17.06;100.00;102609.00;7377050;19;20480;-77
2022/07/11 06:35:37;;;;;;;3.92;2.30;;;;;;;17.07;100.00;102594.88;7373932;19;20010;-77
2022/07/11 06:38:07;;;;;;;4.57;2.47;;;;;;;17.17;100.00;102596.78;7372257;19;20019;-79
2022/07/11 06:40:41;;;;;;;2.55;1.92;;;;;;;17.24;100.00;102598.66;7374480;19;20052;-77
2022/07/11 06:43:11;;;;;;;3.03;2.30;;;;;;;17.35;100.00;102612.06;7376711;19;20059;-77
2022/07/11 06:45:42;;;;;;;6.32;2.65;;;;;;;17.45;100.00;102608.66;7366060;19;20014;-77
2022/07/11 06:48:11;;;;;;;3.42;2.47;;;;;;;17.49;100.00;102602.50;7366050;19;20010;-80
2022/07/11 06:50:42;;;;;;;6.55;2.50;;;;;;;17.57;100.00;102609.69;7370267;19;20018;-79
2022/07/11 06:53:12;;;;;;;6.57;2.92;;;;;;;17.47;100.00;102614.88;7365662;19;20010;-80
2022/07/11 06:55:44;;;;;;;4.30;2.50;;;;;;;17.58;100.00;102618.56;7371238;19;20007;-79
2022/07/11 06:58:31;;;;;;;4.07;2.70;;;;;;;17.58;100.00;102613.25;7373589;19;20043;-79
2022/07/11 07:01:02;;;;;;;5.60;2.40;;;;;;;17.52;100.00;102618.47;7375707;19;20718;-78
2022/07/11 07:03:34;;;;;;;5.47;2.40;;;;;;;17.61;100.00;102616.81;7376037;19;20357;-79
2022/07/11 07:06:06;;;;;;;4.30;2.40;;;;;;;17.69;100.00;102614.28;7377810;19;20006;-78
2022/07/11 07:08:38;;;;;;;5.10;2.60;;;;;;;17.72;100.00;102619.63;7379150;19;20125;-78
2022/07/11 07:11:12;;;;;;;3.53;2.10;;;;;;;17.86;100.00;102623.31;7373379;19;20497;-78
2022/07/11 07:13:45;;;;;;;5.43;2.22;;;;;;;17.50;100.00;102623.75;7375832;19;20011;-76
2022/07/11 07:16:16;;;;;;;4.28;2.33;;;;;;;17.35;100.00;102627.97;7375648;19;20082;-78
2022/07/11 07:18:48;;;;;;;4.72;2.00;;;;;;;17.46;100.00;102635.19;7374008;19;20015;-78
2022/07/11 07:21:20;;;;;;;5.82;2.50;;;;;;;17.47;100.00;102638.75;7369939;19;20014;-78
2022/07/11 07:23:50;;;;;;;5.05;2.80;;;;;;;17.60;100.00;102630.97;7371387;19;20014;-77
2022/07/11 07:26:23;;;;;;;4.18;2.50;;;;;;;17.50;100.00;102630.81;7369647;19;20011;-78
2022/07/11 07:28:53;;;;;;;4.65;2.70;;;;;;;17.63;100.00;102633.66;7371298;19;20341;-78
2022/07/11 07:31:23;;;;;;;7.53;2.67;;;;;;;17.85;100.00;102634.81;7374200;19;20037;-78
2022/07/11 07:33:53;;;;;;;5.38;2.80;;;;;;;17.72;100.00;102639.94;7374063;19;20010;-78
2022/07/11 07:36:23;;;;;;;5.72;2.42;;;;;;;17.82;100.00;102636.53;7373034;19;20555;-77
2022/07/11 07:38:56;;;;;;;5.47;2.63;;;;;;;17.68;100.00;102641.69;7369069;19;20011;-77
2022/07/11 07:41:29;;;;;;;5.00;2.60;;;;;;;17.75;100.00;102640.88;7376089;19;20025;-78
2022/07/11 07:43:59;;;;;;;5.13;2.78;;;;;;;17.84;100.00;102635.69;7372283;19;20010;-78
2022/07/11 07:46:29;;;;;;;4.60;2.50;;;;;;;17.83;100.00;102639.22;7371465;19;20083;-78
2022/07/11 07:48:59;;;;;;;5.78;2.63;;;;;;;18.05;100.00;102634.16;7376292;19;20035;-81
2022/07/11 07:51:29;;;;;;;5.32;2.40;;;;;;;17.93;100.00;102640.22;7377274;19;20010;-77
2022/07/11 07:53:59;;;;;;;7.82;3.30;;;;;;;18.05;100.00;102635.03;7364885;19;20011;-77
2022/07/11 07:56:31;;;;;;;7.38;3.00;;;;;;;18.24;100.00;102636.13;7373294;19;20017;-78
2022/07/11 07:59:02;;;;;;;9.97;3.47;;;;;;;18.28;100.00;102632.63;7376725;19;20322;-79
2022/07/11 08:01:35;;;;;;;6.93;3.00;;;;;;;18.36;100.00;102630.94;7378515;19;20010;-81
2022/07/11 08:04:06;;;;;;;;;;;;;;;18.45;100.00;102628.38;7378536;19;20018;-79
2022/07/11 08:06:37;;;;;;;5.10;2.53;;;;;;;18.48;100.00;102635.47;7378017;19;19919;-81
2022/07/11 08:09:08;;;;;;;6.22;2.95;;;;;;;18.55;100.00;102634.66;7381193;19;20014;-78
2022/07/11 08:11:43;;;;;;;4.38;2.90;;;;;;;18.59;100.00;102641.78;7383505;19;20009;-81
2022/07/11 08:14:16;;;;;;;5.57;2.60;;;;;;;18.73;100.00;102634.81;7385028;19;20027;-78
2022/07/11 08:16:47;;;;;;;8.00;3.17;;;;;;;18.68;100.00;102635.69;7380772;19;20081;-80
2022/07/11 08:19:18;;;;;;;7.15;3.00;;;;;;;18.63;100.00;102630.34;7382911;19;20006;-80
2022/07/11 08:21:48;;;;;;;4.15;2.50;;;;;;;18.83;100.00;102635.78;7378333;19;20074;-80
2022/07/11 08:24:18;;;;;;;5.45;2.30;;;;;;;18.91;100.00;102631.41;7381373;19;20014;-78
2022/07/11 08:26:52;;;;;;;4.63;2.10;;;;;;;19.05;100.00;102639.47;7375106;19;20011;-78
2022/07/11 08:29:42;;;;;;;;;;;;;;;19.25;100.00;102633.41;7372636;19;21526;-79
2022/07/11 08:32:13;;;;;;;4.60;2.10;;;;;;;19.03;100.00;102639.47;7371917;19;19922;-79
2022/07/11 08:34:42;;;;;;;3.85;2.08;;;;;;;18.82;100.00;102641.97;7368478;19;20075;-81
2022/07/11 08:37:13;;;;;;;5.32;2.50;;;;;;;18.99;100.00;102642.09;7369880;19;20015;-79
2022/07/11 08:39:43;;;;;;;4.05;2.20;;;;;;;18.98;100.00;102643.88;7370902;19;20036;-79
2022/07/11 08:42:23;;;;;;;4.78;2.08;;;;;;;19.27;100.00;102642.28;7378644;19;20086;-79
2022/07/11 08:44:53;;;;;;;7.07;2.97;;;;;;;19.36;100.00;102643.22;7377848;19;20328;-80
2022/07/11 08:47:26;;;;;;;4.30;2.05;;;;;;;19.40;100.00;102647.69;7378254;19;20011;-80
2022/07/11 08:50:03;;;;;;;6.60;2.60;;;;;;;19.40;100.00;102645.00;7379208;19;20515;-79
2022/07/11 08:52:34;;;;;;;3.97;2.30;;;;;;;19.43;100.00;102645.94;7370949;19;20014;-78
2022/07/11 08:55:06;;;;;;;5.65;2.67;;;;;;;19.33;100.00;102644.09;7373016;19;20026;-77
2022/07/11 08:57:40;;;;;;;4.18;2.72;;;;;;;19.65;100.00;102638.97;7379170;19;20014;-78
2022/07/11 09:00:14;;;;;;;4.80;2.30;;;;;;;19.75;100.00;102639.91;7377663;19;20011;-77
2022/07/11 09:02:45;;;;;;;5.13;2.80;;;;;;;19.98;100.00;102629.28;7377849;19;20003;-77
2022/07/11 09:05:17;;;;;;;5.53;2.60;;;;;;;19.84;100.00;102631.91;7377043;19;20011;-76
2022/07/11 09:07:49;;;;;;;3.90;2.38;;;;;;;20.19;100.00;102624.00;7377570;19;20018;-76
2022/07/11 09:10:20;;;;;;;5.28;2.50;;;;;;;20.16;100.00;102632.00;7377953;19;20014;-76
2022/07/11 09:13:07;;;;;;;10.52;3.28;;;;;;;20.45;100.00;102629.41;7381474;19;20063;-77
2022/07/11 09:15:39;;;;;;;5.43;2.80;;;;;;;20.39;100.00;102624.06;7381747;19;20022;-76
2022/07/11 09:18:33;;;;;;;7.90;3.10;;;;;;;20.56;99.56;102631.19;7379792;19;20023;-76
2022/07/11 09:26:32;;;;;;;6.65;3.13;;;;;;;21.06;95.44;102629.34;7379125;19;20011;-75
2022/07/11 09:29:06;;;;;;;5.45;3.10;;;;;;;21.15;94.85;102622.22;7380856;19;20472;-76
2022/07/11 09:31:44;;;;;;;9.75;4.10;;;;;;;21.17;95.82;102628.44;7380754;19;20185;-78
2022/07/11 09:34:16;;;;;;;8.40;3.35;;;;;;;20.92;94.43;102637.38;7378324;19;20185;-75
2022/07/11 09:36:48;;;;;;;5.68;2.97;;;;;;;20.62;96.37;102632.09;7380226;19;20393;-76
2022/07/11 09:39:19;;;;;;;7.43;2.78;;;;;;;21.10;96.69;102626.69;7378191;19;20020;-76
2022/07/11 09:41:58;;;;;;;5.60;2.80;;;;;;;21.49;93.30;102628.38;7377009;19;20053;-76
2022/07/11 09:44:33;;;;;;;5.57;2.95;;;;;;;21.40;89.63;102632.88;7374335;19;20523;-76
2022/07/11 09:47:11;;;;;;;5.13;2.75;;;;;;;21.35;90.86;102637.31;7377155;19;21725;-78
2022/07/11 09:49:42;;;;;;;7.82;3.67;;;;;;;21.50;90.53;102639.94;7379709;19;20620;-77
2022/07/11 09:52:16;;;;;;;7.75;3.78;;;;;;;21.61;91.77;102637.25;7369794;19;20010;-75
2022/07/11 09:54:57;;;;;;;5.80;2.97;;;;;;;21.76;90.11;102640.72;7373277;19;20066;-76
2022/07/11 09:57:34;;;;;;;7.75;4.28;;;;;;;21.96;88.72;102634.38;7372050;19;20010;-76
2022/07/11 10:00:10;;;;;;;4.72;2.70;;;;;;;21.56;87.45;102636.38;7376393;19;20011;-76
2022/07/11 10:02:43;;;;;;;5.32;2.63;;;;;;;22.01;86.58;102635.25;7374274;19;20011;-76
2022/07/11 10:05:13;;;;;;;5.25;2.80;;;;;;;23.07;81.77;102626.41;7371746;19;20011;-76
2022/07/11 10:07:46;;;;;;;5.80;3.33;;;;;;;23.19;80.71;102635.19;7372106;19;20029;-76
2022/07/11 10:10:17;;;;;;;8.63;3.53;;;;;;;22.84;77.41;102636.47;7377639;19;20078;-76
2022/07/11 10:12:50;;;;;;;7.65;3.70;;;;;;;23.20;76.14;102621.81;7376202;19;20010;-77
2022/07/11 10:15:35;;;;;;;5.50;3.25;;;;;;;23.05;76.52;102622.84;7374074;19;20021;-76
2022/07/11 10:18:12;;;;;;;6.13;3.45;;;;;;;23.53;75.63;102620.53;7372054;19;20059;-76
2022/07/11 10:20:47;;;;;;;8.30;3.60;;;;;;;23.07;77.64;102614.81;7374338;19;20002;-76
2022/07/11 10:23:25;;;;;;;4.78;2.80;;;;;;;23.27;73.66;102618.16;7373814;19;20018;-76
2022/07/11 10:26:04;;;;;;;6.00;3.00;;;;;;;22.22;77.95;102624.44;7374696;19;20061;-75
2022/07/11 10:28:41;;;;;;;6.25;3.10;;;;;;;22.30;79.30;102622.59;7374532;19;20495;-76
2022/07/11 10:31:27;;;;;;;5.00;2.92;;;;;;;22.66;78.00;102621.44;7370063;19;20070;-77
2022/07/11 10:34:18;;;;;;;5.85;3.33;;;;;;;22.26;79.05;102636.00;7371106;19;20064;-76
2022/07/11 10:36:54;;;;;;;6.63;3.00;;;;;;;22.45;77.96;102633.19;7375895;19;20015;-77
2022/07/11 10:39:27;;;;;;;7.45;4.10;;;;;;;22.82;76.04;102627.56;7374581;19;20468;-76
2022/07/11 10:41:58;;;;;;;8.10;3.80;;;;;;;23.58;72.87;102626.75;7372516;19;20500;-76
2022/07/11 10:44:30;;;;;;;7.15;3.50;;;;;;;24.05;69.62;102627.88;7374008;19;20066;-77
2022/07/11 10:47:03;;;;;;;7.05;3.75;;;;;;;24.74;68.50;102625.00;7376410;19;20023;-76
2022/07/11 10:49:45;;;;;;;6.55;4.10;;;;;;;25.06;66.18;102633.38;7373721;19;20021;-77
2022/07/11 10:52:25;;;;;;;8.75;4.55;;;;;;;25.00;66.32;102627.22;7372380;19;20010;-74
2022/07/11 10:55:16;;;;;;;8.43;4.80;;;;;;;24.86;64.94;102630.16;7371822;19;20507;-76
2022/07/11 10:57:58;;;;;;;9.95;5.38;;;;;;;24.31;65.92;102628.41;7373017;19;20492;-76
2022/07/11 11:00:27;;;;;;;9.25;5.20;;;;;;;24.18;67.06;102623.22;7370894;19;20014;-75
2022/07/11 11:03:10;;;;;;;10.02;4.93;;;;;;;25.41;65.63;102615.69;7371813;19;20039;-77
2022/07/11 11:05:52;;;;;;;10.00;5.72;;;;;;;25.74;64.21;102612.31;7376378;19;20022;-76
2022/07/11 11:08:47;;;;;;;9.85;5.43;;;;;;;26.02;61.34;102606.28;7372247;19;20007;-77
2022/07/11 11:11:39;;;;;;;10.32;6.05;;;;;;;25.86;61.48;102607.59;7373314;19;20006;-75
2022/07/11 11:14:23;;;;;;;12.18;6.85;;;;;;;25.17;62.12;102618.84;7370096;19;20014;-76
2022/07/11 11:16:53;;;;;;;11.70;6.30;;;;;;;25.51;62.81;102616.38;7376206;19;20525;-75
2022/07/11 11:19:53;;;;;;;12.73;6.70;;;;;;;26.07;60.92;102615.13;7373750;19;20685;-76
2022/07/11 11:22:28;;;;;;;11.18;6.05;;;;;;;26.29;60.08;102611.03;7380117;19;20043;-77
2022/07/11 11:24:59;;;;;;;12.65;6.68;;;;;;;25.72;58.49;102611.47;7378567;19;20018;-75
2022/07/11 11:28:06;;;;;;;11.65;7.15;;;;;;;24.35;63.10;102614.03;7374747;19;20047;-76
2022/07/11 11:30:37;;;;;;;11.13;6.80;;;;;;;25.02;62.88;102607.50;7378113;19;20094;-76
2022/07/11 11:33:17;;;;;;;12.80;7.68;;;;;;;25.66;61.14;102603.53;7375796;19;20018;-76
2022/07/11 11:35:47;;;;;;;12.25;7.13;;;;;;;26.13;62.13;102608.72;7377319;19;20014;-76
2022/07/11 11:38:20;;;;;;;12.75;7.63;;;;;;;26.84;58.80;102601.56;7374836;19;20047;-76
2022/07/11 11:40:55;;;;;;;12.48;7.32;;;;;;;26.20;58.20;102600.47;7368903;19;20025;-76
2022/07/11 11:43:30;;;;;;;11.85;7.07;;;;;;;26.46;56.75;102596.31;7370790;19;20029;-76
2022/07/11 11:46:01;;;;;;;11.68;7.47;;;;;;;26.23;57.05;102596.84;7373607;19;20033;-76
2022/07/11 11:48:32;;;;;;;11.15;7.32;;;;;;;26.26;57.07;102597.66;7369723;19;20010;-77
2022/07/11 11:51:05;;;;;;;12.48;7.10;;;;;;;26.41;56.86;102585.66;7375624;19;20043;-76